createdAt,value
2023-01-18T00:01:19.455Z,-0.90
2023-01-18T00:03:46.368Z,-0.90
2023-01-18T00:06:13.178Z,-1.00
2023-01-18T00:08:40.944Z,-1.00
2023-01-18T00:11:10.655Z,-1.00
2023-01-18T00:13:37.691Z,-1.00
2023-01-18T00:16:07.132Z,-0.90
2023-01-18T00:18:36.079Z,-0.90
2023-01-18T00:21:08.121Z,-1.00
2023-01-18T00:23:35.337Z,-1.00
2023-01-18T00:26:08.112Z,-1.00
2023-01-18T00:28:35.802Z,-1.10
2023-01-18T00:31:08.475Z,-1.10
2023-01-18T00:33:35.107Z,-1.10
2023-01-18T00:36:03.324Z,-1.10
2023-01-18T00:38:30.476Z,-1.20
2023-01-18T00:40:57.550Z,-1.20
2023-01-18T00:43:39.473Z,-1.20
2023-01-18T00:46:07.210Z,-1.20
2023-01-18T00:48:34.300Z,-1.20
2023-01-18T00:51:01.515Z,-1.20
2023-01-18T00:53:29.265Z,-1.20
2023-01-18T00:55:56.175Z,-1.20
2023-01-18T00:58:22.869Z,-1.20
2023-01-18T01:00:52.786Z,-1.20
2023-01-18T01:03:20.919Z,-1.20
2023-01-18T01:06:06.164Z,-1.20
2023-01-18T01:08:33.086Z,-1.20
2023-01-18T01:11:07.821Z,-1.20
2023-01-18T01:13:53.501Z,-1.20
2023-01-18T01:16:39.448Z,-1.10
2023-01-18T01:19:25.071Z,-1.10
2023-01-18T01:22:10.498Z,-1.10
2023-01-18T01:24:56.051Z,-1.00
2023-01-18T01:27:23.178Z,-1.00
2023-01-18T01:29:51.592Z,-1.00
2023-01-18T01:32:18.410Z,-1.00
2023-01-18T01:34:45.071Z,-1.00
2023-01-18T01:37:11.828Z,-1.10
2023-01-18T01:39:38.463Z,-1.10
2023-01-18T01:42:05.157Z,-1.10
2023-01-18T01:44:34.526Z,-1.10
2023-01-18T01:47:21.477Z,-1.00
2023-01-18T01:49:52.594Z,-1.00
2023-01-18T01:52:33.906Z,-1.00
2023-01-18T01:55:04.593Z,-1.00
2023-01-18T01:57:50.939Z,-0.90
2023-01-18T02:00:20.397Z,-0.90
2023-01-18T02:02:54.685Z,-1.00
2023-01-18T02:05:21.796Z,-1.00
2023-01-18T02:07:49.097Z,-1.00
2023-01-18T02:10:16.280Z,-1.10
2023-01-18T02:12:46.110Z,-1.10
2023-01-18T02:15:13.217Z,-1.10
2023-01-18T02:17:53.980Z,-1.10
2023-01-18T02:20:31.898Z,-1.10
2023-01-18T02:23:21.581Z,-1.00
2023-01-18T02:26:16.322Z,-1.00
2023-01-18T02:28:45.613Z,-1.00
2023-01-18T02:31:21.306Z,-1.00
2023-01-18T02:33:50.965Z,-1.00
2023-01-18T02:36:34.602Z,-1.00
2023-01-18T02:39:06.936Z,-1.00
2023-01-18T02:42:00.860Z,-1.00
2023-01-18T02:44:52.752Z,-1.00
2023-01-18T02:47:21.177Z,-1.00
2023-01-18T02:49:47.795Z,-1.00
2023-01-18T02:52:39.292Z,-0.90
2023-01-18T02:55:09.502Z,-0.90
2023-01-18T02:57:36.290Z,-1.00
2023-01-18T03:00:06.214Z,-1.00
2023-01-18T03:02:33.055Z,-1.00
2023-01-18T03:05:00.190Z,-1.00
2023-01-18T03:07:31.934Z,-1.00
2023-01-18T03:10:01.688Z,-1.10
2023-01-18T03:12:56.587Z,-1.10
2023-01-18T03:15:45.735Z,-1.00
2023-01-18T03:18:23.295Z,-1.00
2023-01-18T03:20:55.832Z,-1.00
2023-01-18T03:23:41.158Z,-1.00
2023-01-18T03:26:16.458Z,-0.90
2023-01-18T03:29:13.197Z,-1.00
2023-01-18T03:32:05.357Z,-0.90
2023-01-18T03:34:59.370Z,-0.90
2023-01-18T03:37:37.677Z,-0.90
2023-01-18T03:40:12.023Z,-0.80
2023-01-18T03:42:50.045Z,-0.90
2023-01-18T03:45:23.469Z,-0.80
2023-01-18T03:47:50.924Z,-0.80
2023-01-18T03:50:17.991Z,-0.80
2023-01-18T03:52:50.609Z,-0.90
2023-01-18T03:55:24.188Z,-0.90
2023-01-18T03:57:59.667Z,-0.90
2023-01-18T04:00:26.597Z,-0.90
2023-01-18T04:02:53.502Z,-0.80
2023-01-18T04:05:20.368Z,-0.90
2023-01-18T04:07:47.317Z,-0.90
2023-01-18T04:10:14.112Z,-0.90
2023-01-18T04:12:40.877Z,-0.90
2023-01-18T04:15:08.204Z,-0.90
2023-01-18T04:17:34.923Z,-0.90
2023-01-18T04:20:01.806Z,-0.90
2023-01-18T04:22:28.563Z,-0.90
2023-01-18T04:24:55.374Z,-0.80
2023-01-18T04:27:24.282Z,-0.80
2023-01-18T04:29:51.495Z,-0.80
2023-01-18T04:32:18.250Z,-0.90
2023-01-18T04:34:45.017Z,-0.90
2023-01-18T04:37:11.707Z,-0.80
2023-01-18T04:39:38.694Z,-0.80
2023-01-18T04:42:05.691Z,-0.80
2023-01-18T04:44:32.394Z,-0.80
2023-01-18T04:46:59.106Z,-0.80
2023-01-18T04:49:27.802Z,-0.80
2023-01-18T04:51:54.489Z,-0.80
2023-01-18T04:54:21.135Z,-0.80
2023-01-18T04:56:47.900Z,-0.80
2023-01-18T04:59:16.371Z,-0.70
2023-01-18T05:01:43.248Z,-0.70
2023-01-18T05:04:10.330Z,-0.70
2023-01-18T05:06:37.006Z,-0.70
2023-01-18T05:09:03.932Z,-0.70
2023-01-18T05:11:30.677Z,-0.70
2023-01-18T05:13:57.333Z,-0.70
2023-01-18T05:16:24.472Z,-0.70
2023-01-18T05:18:51.625Z,-0.70
2023-01-18T05:21:18.326Z,-0.60
2023-01-18T05:23:45.146Z,-0.60
2023-01-18T05:26:17.904Z,-0.60
2023-01-18T05:28:45.410Z,-0.60
2023-01-18T05:31:13.419Z,-0.60
2023-01-18T05:33:40.241Z,-0.60
2023-01-18T05:36:07.726Z,-0.60
2023-01-18T05:38:34.530Z,-0.60
2023-01-18T05:41:01.434Z,-0.60
2023-01-18T05:43:28.938Z,-0.50
2023-01-18T05:45:56.015Z,-0.50
2023-01-18T05:48:23.019Z,-0.50
2023-01-18T05:50:49.967Z,-0.50
2023-01-18T05:53:19.711Z,-0.50
2023-01-18T05:55:58.244Z,-0.50
2023-01-18T05:58:26.330Z,-0.50
2023-01-18T06:00:53.787Z,-0.50
2023-01-18T06:03:21.092Z,-0.50
2023-01-18T06:05:48.559Z,-0.50
2023-01-18T06:08:15.991Z,-0.50
2023-01-18T06:10:42.733Z,-0.50
2023-01-18T06:13:10.306Z,-0.40
2023-01-18T06:15:37.163Z,-0.40
2023-01-18T06:18:04.040Z,-0.40
2023-01-18T06:20:30.771Z,-0.40
2023-01-18T06:22:58.325Z,-0.40
2023-01-18T06:25:25.666Z,-0.40
2023-01-18T06:27:52.688Z,-0.30
2023-01-18T06:30:19.740Z,-0.30
2023-01-18T06:32:48.396Z,-0.30
2023-01-18T06:35:15.175Z,-0.30
2023-01-18T06:37:42.006Z,-0.30
2023-01-18T06:40:09.697Z,-0.30
2023-01-18T06:42:36.385Z,-0.30
2023-01-18T06:45:03.405Z,-0.30
2023-01-18T06:47:30.209Z,-0.30
2023-01-18T06:49:57.015Z,-0.30
2023-01-18T06:52:23.783Z,-0.20
2023-01-18T06:54:50.432Z,-0.20
2023-01-18T06:57:17.131Z,-0.20
2023-01-18T06:59:43.899Z,-0.20
2023-01-18T07:02:16.422Z,-0.20
2023-01-18T07:04:45.321Z,-0.10
2023-01-18T07:07:13.251Z,-0.10
2023-01-18T07:09:39.919Z,-0.10
2023-01-18T07:12:06.988Z,-0.10
2023-01-18T07:14:34.210Z,-0.10
2023-01-18T07:17:00.913Z,-0.10
2023-01-18T07:19:27.699Z,-0.10
2023-01-18T07:21:54.445Z,-0.10
2023-01-18T07:24:21.189Z,-0.10
2023-01-18T07:26:48.122Z,-0.10
2023-01-18T07:29:14.933Z,-0.10
2023-01-18T07:31:41.660Z,-0.10
2023-01-18T07:34:09.825Z,-0.10
2023-01-18T07:36:39.101Z,-0.10
2023-01-18T07:39:06.518Z,-0.10
2023-01-18T07:41:33.220Z,-0.10
2023-01-18T07:44:00.581Z,0.00
2023-01-18T07:46:27.658Z,0.00
2023-01-18T07:48:54.394Z,-0.10
2023-01-18T07:51:22.507Z,0.00
2023-01-18T07:53:53.625Z,0.00
2023-01-18T07:56:20.621Z,0.00
2023-01-18T07:58:47.260Z,0.00
2023-01-18T08:01:17.124Z,0.00
2023-01-18T08:03:45.635Z,0.10
2023-01-18T08:06:17.034Z,0.10
2023-01-18T08:08:44.197Z,0.10
2023-01-18T08:11:11.927Z,0.10
2023-01-18T08:13:39.141Z,0.10
2023-01-18T08:16:08.329Z,0.10
2023-01-18T08:18:35.091Z,0.20
2023-01-18T08:21:01.837Z,0.20
2023-01-18T08:23:28.845Z,0.30
2023-01-18T08:25:55.550Z,0.40
2023-01-18T08:28:22.624Z,0.40
2023-01-18T08:30:49.500Z,0.40
2023-01-18T08:33:16.403Z,0.50
2023-01-18T08:35:47.769Z,0.50
2023-01-18T08:38:16.079Z,0.50
2023-01-18T08:40:43.331Z,0.60
2023-01-18T08:43:11.658Z,0.60
2023-01-18T08:45:38.498Z,0.70
2023-01-18T08:48:09.355Z,0.80
2023-01-18T08:50:36.785Z,0.80
2023-01-18T08:53:04.186Z,0.80
2023-01-18T08:55:31.763Z,0.90
2023-01-18T08:57:59.103Z,1.00
2023-01-18T09:00:30.084Z,1.00
2023-01-18T09:02:58.335Z,1.10
2023-01-18T09:05:27.036Z,1.10
2023-01-18T09:07:54.949Z,1.20
2023-01-18T09:10:22.299Z,1.20
2023-01-18T09:12:49.016Z,1.20
2023-01-18T09:15:15.789Z,1.30
2023-01-18T09:17:42.518Z,1.30
2023-01-18T09:20:11.851Z,1.30
2023-01-18T09:22:39.729Z,1.30
2023-01-18T09:25:06.935Z,1.30
2023-01-18T09:27:33.765Z,1.30
2023-01-18T09:30:00.698Z,1.30
2023-01-18T09:32:27.513Z,1.40
2023-01-18T09:34:54.804Z,1.40
2023-01-18T09:37:21.914Z,1.40
2023-01-18T09:39:52.089Z,1.50
2023-01-18T09:42:22.647Z,1.50
2023-01-18T09:44:56.601Z,1.50
2023-01-18T09:47:39.413Z,1.60
2023-01-18T09:50:20.853Z,1.60
2023-01-18T09:53:34.134Z,1.70
2023-01-18T09:56:05.744Z,1.70
2023-01-18T09:58:53.514Z,1.70
2023-01-18T10:01:25.206Z,1.70
2023-01-18T10:04:10.703Z,1.80
2023-01-18T10:07:00.512Z,1.80
2023-01-18T10:09:28.537Z,1.80
2023-01-18T10:11:59.832Z,1.80
2023-01-18T10:14:41.847Z,1.90
2023-01-18T10:17:17.695Z,1.90
2023-01-18T10:19:44.765Z,1.90
2023-01-18T10:22:19.425Z,1.90
2023-01-18T10:24:55.323Z,1.90
2023-01-18T10:27:38.210Z,2.00
2023-01-18T10:30:29.032Z,2.00
2023-01-18T10:33:01.300Z,2.00
2023-01-18T10:35:33.110Z,2.00
2023-01-18T10:38:04.893Z,2.00
2023-01-18T10:40:32.621Z,2.00
2023-01-18T10:43:02.433Z,2.00
2023-01-18T10:45:32.900Z,2.00
2023-01-18T10:48:29.289Z,2.00
2023-01-18T10:50:59.496Z,1.90
2023-01-18T10:53:31.346Z,1.90
2023-01-18T10:56:17.311Z,2.00
2023-01-18T10:59:03.100Z,2.00
2023-01-18T11:01:31.793Z,2.00
2023-01-18T11:04:07.595Z,2.00
2023-01-18T11:06:55.575Z,2.00
2023-01-18T11:09:42.743Z,2.00
2023-01-18T11:12:43.373Z,2.00
2023-01-18T11:15:16.144Z,2.00
2023-01-18T11:17:56.330Z,1.90
2023-01-18T11:20:23.324Z,1.90
2023-01-18T11:22:59.299Z,1.90
2023-01-18T11:25:34.765Z,1.90
2023-01-18T11:28:03.006Z,1.90
2023-01-18T11:30:29.947Z,1.90
2023-01-18T11:33:02.400Z,1.90
2023-01-18T11:35:37.158Z,1.90
2023-01-18T11:38:08.684Z,1.90
2023-01-18T11:40:35.770Z,1.90
2023-01-18T11:43:11.463Z,2.00
2023-01-18T11:45:49.322Z,1.90
2023-01-18T11:48:43.761Z,1.90
2023-01-18T11:51:15.711Z,2.00
2023-01-18T11:53:57.699Z,1.90
2023-01-18T11:56:30.061Z,1.90
2023-01-18T11:58:57.246Z,2.00
2023-01-18T12:01:38.574Z,1.90
2023-01-18T12:04:14.089Z,1.90
2023-01-18T12:07:18.027Z,1.90
2023-01-18T12:09:54.137Z,1.90
2023-01-18T12:12:46.422Z,1.90
2023-01-18T12:15:39.634Z,1.90
2023-01-18T12:18:24.898Z,1.90
2023-01-18T12:20:58.255Z,1.90
2023-01-18T12:24:03.399Z,1.90
2023-01-18T12:26:41.398Z,1.90
2023-01-18T12:29:11.135Z,1.90
2023-01-18T12:31:50.085Z,1.90
2023-01-18T12:34:32.906Z,2.00
2023-01-18T12:37:24.518Z,1.90
2023-01-18T12:39:57.201Z,1.90
2023-01-18T12:42:31.666Z,1.90
2023-01-18T12:45:04.300Z,1.90
2023-01-18T12:47:40.600Z,1.90
2023-01-18T12:50:29.513Z,2.00
2023-01-18T12:53:04.709Z,2.00
2023-01-18T12:55:33.659Z,2.00
2023-01-18T12:58:02.774Z,2.00
2023-01-18T13:00:36.364Z,2.00
2023-01-18T13:03:13.476Z,2.00
2023-01-18T13:05:53.342Z,2.00
2023-01-18T13:08:40.065Z,2.00
2023-01-18T13:11:09.172Z,2.00
2023-01-18T13:13:37.171Z,2.00
2023-01-18T13:16:16.326Z,2.00
2023-01-18T13:19:06.028Z,2.00
2023-01-18T13:22:00.143Z,2.00
2023-01-18T13:24:57.697Z,2.00
2023-01-18T13:27:24.462Z,1.90
2023-01-18T13:29:51.218Z,1.90
2023-01-18T13:32:34.198Z,1.90
2023-01-18T13:35:20.511Z,1.90
2023-01-18T13:37:57.942Z,1.90
2023-01-18T13:40:34.639Z,1.80
2023-01-18T13:43:01.635Z,1.80
2023-01-18T13:45:30.349Z,1.80
2023-01-18T13:48:41.874Z,1.80
2023-01-18T13:51:09.359Z,1.80
2023-01-18T13:53:50.106Z,1.80
2023-01-18T13:56:25.631Z,1.70
2023-01-18T13:59:12.248Z,1.70
2023-01-18T14:01:43.107Z,1.70
2023-01-18T14:04:32.140Z,1.70
2023-01-18T14:07:04.674Z,1.70
2023-01-18T14:09:41.593Z,1.70
2023-01-18T14:12:09.631Z,1.70
2023-01-18T14:14:59.401Z,1.60
2023-01-18T14:17:26.589Z,1.60
2023-01-18T14:20:08.201Z,1.60
2023-01-18T14:22:58.442Z,1.50
2023-01-18T14:25:46.009Z,1.50
2023-01-18T14:28:17.505Z,1.50
2023-01-18T14:30:46.686Z,1.40
2023-01-18T14:33:32.401Z,1.40
2023-01-18T14:36:00.845Z,1.50
2023-01-18T14:38:28.717Z,1.40
2023-01-18T14:40:59.386Z,1.40
2023-01-18T14:43:46.844Z,1.40
2023-01-18T14:46:16.916Z,1.40
2023-01-18T14:48:51.987Z,1.40
2023-01-18T14:51:24.480Z,1.30
2023-01-18T14:53:57.828Z,1.30
2023-01-18T14:56:26.265Z,1.30
2023-01-18T14:59:02.998Z,1.30
2023-01-18T15:01:40.184Z,1.30
2023-01-18T15:04:20.078Z,1.30
2023-01-18T15:06:57.306Z,1.30
2023-01-18T15:09:28.297Z,1.20
2023-01-18T15:12:01.112Z,1.20
2023-01-18T15:14:44.845Z,1.20
2023-01-18T15:17:23.294Z,1.20
2023-01-18T15:19:54.296Z,1.20
2023-01-18T15:22:26.761Z,1.20
2023-01-18T15:24:57.684Z,1.10
2023-01-18T15:27:24.528Z,1.10
2023-01-18T15:29:56.028Z,1.10
2023-01-18T15:32:26.258Z,1.10
2023-01-18T15:34:55.179Z,1.10
2023-01-18T15:37:24.159Z,1.00
2023-01-18T15:39:58.235Z,1.00
2023-01-18T15:42:29.822Z,1.00
2023-01-18T15:44:59.139Z,1.00
2023-01-18T15:47:29.185Z,1.00
2023-01-18T15:49:57.882Z,1.00
2023-01-18T15:52:45.036Z,1.10
2023-01-18T15:55:30.339Z,1.10
2023-01-18T15:58:03.596Z,1.10
2023-01-18T16:00:38.299Z,1.00
2023-01-18T16:03:05.919Z,1.00
2023-01-18T16:05:32.817Z,1.00
2023-01-18T16:08:21.223Z,1.00
2023-01-18T16:10:56.052Z,1.00
2023-01-18T16:13:29.479Z,1.00
2023-01-18T16:16:15.294Z,1.00
2023-01-18T16:18:45.072Z,1.00
2023-01-18T16:21:19.693Z,1.10
2023-01-18T16:23:49.864Z,1.10
2023-01-18T16:26:23.085Z,1.10
2023-01-18T16:28:51.749Z,1.10
2023-01-18T16:31:22.996Z,1.10
2023-01-18T16:33:49.740Z,1.10
2023-01-18T16:36:19.035Z,1.10
2023-01-18T16:38:46.079Z,1.10
2023-01-18T16:41:14.732Z,1.10
2023-01-18T16:43:43.325Z,1.00
2023-01-18T16:46:10.001Z,1.00
2023-01-18T16:48:37.647Z,1.00
2023-01-18T16:51:13.695Z,1.00
2023-01-18T16:53:40.351Z,1.00
2023-01-18T16:56:07.290Z,1.00
2023-01-18T16:58:35.257Z,1.00
2023-01-18T17:01:07.734Z,1.00
2023-01-18T17:03:35.919Z,1.00
2023-01-18T17:06:03.534Z,1.00
2023-01-18T17:08:30.286Z,1.00
2023-01-18T17:10:56.984Z,1.00
2023-01-18T17:13:23.943Z,1.00
2023-01-18T17:15:52.621Z,1.00
2023-01-18T17:18:23.940Z,1.10
2023-01-18T17:20:50.938Z,1.00
2023-01-18T17:23:19.448Z,1.00
2023-01-18T17:25:46.420Z,1.10
2023-01-18T17:28:14.459Z,1.10
2023-01-18T17:30:43.647Z,1.10
2023-01-18T17:33:19.393Z,1.10
2023-01-18T17:35:46.443Z,1.10
2023-01-18T17:38:23.208Z,1.10
2023-01-18T17:40:51.241Z,1.10
2023-01-18T17:43:28.463Z,1.10
2023-01-18T17:46:02.450Z,1.10
2023-01-18T17:48:29.627Z,1.10
2023-01-18T17:50:56.361Z,1.10
2023-01-18T17:53:23.112Z,1.00
2023-01-18T17:55:49.913Z,1.00
2023-01-18T17:58:16.620Z,1.00
2023-01-18T18:00:43.814Z,1.00
2023-01-18T18:03:10.699Z,1.00
2023-01-18T18:05:37.476Z,1.10
2023-01-18T18:08:04.354Z,1.10
2023-01-18T18:10:31.059Z,1.10
2023-01-18T18:12:58.209Z,1.10
2023-01-18T18:15:25.433Z,1.00
2023-01-18T18:17:52.177Z,1.00
2023-01-18T18:20:20.237Z,1.10
2023-01-18T18:22:47.990Z,1.10
2023-01-18T18:25:14.732Z,1.10
2023-01-18T18:27:45.868Z,1.00
2023-01-18T18:30:13.652Z,1.10
2023-01-18T18:32:40.388Z,1.00
2023-01-18T18:35:23.264Z,1.00
2023-01-18T18:37:52.122Z,1.10
2023-01-18T18:40:19.185Z,1.10
2023-01-18T18:43:00.699Z,1.00
2023-01-18T18:45:29.479Z,1.10
2023-01-18T18:47:56.146Z,1.00
2023-01-18T18:50:22.793Z,1.10
2023-01-18T18:52:49.496Z,1.10
2023-01-18T18:55:16.239Z,1.10
2023-01-18T18:57:43.090Z,1.00
2023-01-18T19:00:10.450Z,1.00
2023-01-18T19:02:37.267Z,1.00
2023-01-18T19:05:05.062Z,1.00
2023-01-18T19:07:33.686Z,1.00
2023-01-18T19:10:00.395Z,1.00
2023-01-18T19:12:27.074Z,0.90
2023-01-18T19:14:53.732Z,0.90
2023-01-18T19:17:29.829Z,0.90
2023-01-18T19:19:57.830Z,0.90
2023-01-18T19:22:24.508Z,0.90
2023-01-18T19:24:51.158Z,0.90
2023-01-18T19:27:17.837Z,0.80
2023-01-18T19:29:44.574Z,0.80
2023-01-18T19:32:11.244Z,0.80
2023-01-18T19:34:38.580Z,0.80
2023-01-18T19:37:05.568Z,0.80
2023-01-18T19:39:34.742Z,0.80
2023-01-18T19:42:02.431Z,0.80
2023-01-18T19:44:29.529Z,0.80
2023-01-18T19:46:57.142Z,0.80
2023-01-18T19:49:27.367Z,0.80
2023-01-18T19:51:54.851Z,0.70
2023-01-18T19:54:22.139Z,0.80
2023-01-18T19:56:48.948Z,0.70
2023-01-18T19:59:16.039Z,0.70
2023-01-18T20:01:43.220Z,0.80
2023-01-18T20:04:10.023Z,0.80
2023-01-18T20:06:40.089Z,0.70
2023-01-18T20:09:18.606Z,0.70
2023-01-18T20:11:46.404Z,0.80
2023-01-18T20:14:13.418Z,0.80
2023-01-18T20:16:40.450Z,0.70
2023-01-18T20:19:07.427Z,0.70
2023-01-18T20:21:34.169Z,0.60
2023-01-18T20:24:00.943Z,0.60
2023-01-18T20:26:36.779Z,0.50
2023-01-18T20:29:07.332Z,0.50
2023-01-18T20:31:38.483Z,0.40
2023-01-18T20:34:06.356Z,0.40
2023-01-18T20:36:36.621Z,0.40
2023-01-18T20:39:05.062Z,0.30
2023-01-18T20:41:31.733Z,0.30
2023-01-18T20:43:58.486Z,0.30
2023-01-18T20:46:25.229Z,0.20
2023-01-18T20:48:51.918Z,0.20
2023-01-18T20:51:18.604Z,0.20
2023-01-18T20:53:45.322Z,0.10
2023-01-18T20:56:27.725Z,0.10
2023-01-18T20:58:55.716Z,0.00
2023-01-18T21:01:22.882Z,-0.10
2023-01-18T21:03:54.660Z,-0.10
2023-01-18T21:06:21.598Z,-0.10
2023-01-18T21:08:50.976Z,-0.10
2023-01-18T21:11:17.858Z,-0.20
2023-01-18T21:13:44.531Z,-0.20
2023-01-18T21:16:11.359Z,-0.30
2023-01-18T21:18:39.348Z,-0.30
2023-01-18T21:21:06.279Z,-0.30
2023-01-18T21:23:39.194Z,-0.40
2023-01-18T21:26:11.302Z,-0.40
2023-01-18T21:28:38.354Z,-0.40
2023-01-18T21:31:06.459Z,-0.40
2023-01-18T21:33:33.738Z,-0.40
2023-01-18T21:36:09.657Z,-0.40
2023-01-18T21:38:36.587Z,-0.50
2023-01-18T21:41:21.881Z,-0.50
2023-01-18T21:44:09.221Z,-0.50
2023-01-18T21:46:37.598Z,-0.50
2023-01-18T21:49:06.610Z,-0.60
2023-01-18T21:51:52.320Z,-0.60
2023-01-18T21:54:19.653Z,-0.60
2023-01-18T21:56:47.310Z,-0.70
2023-01-18T21:59:14.678Z,-0.80
2023-01-18T22:01:44.046Z,-0.80
2023-01-18T22:04:33.794Z,-0.90
2023-01-18T22:07:00.885Z,-0.90
2023-01-18T22:09:29.275Z,-0.90
2023-01-18T22:11:57.255Z,-1.00
2023-01-18T22:14:25.043Z,-1.00
2023-01-18T22:16:51.949Z,-1.00
2023-01-18T22:19:21.359Z,-1.00
2023-01-18T22:21:49.036Z,-1.00
2023-01-18T22:24:17.400Z,-1.10
2023-01-18T22:26:45.429Z,-1.10
2023-01-18T22:29:12.986Z,-1.10
2023-01-18T22:31:40.335Z,-1.20
2023-01-18T22:34:07.595Z,-1.20
2023-01-18T22:36:34.748Z,-1.20
2023-01-18T22:39:01.577Z,-1.20
2023-01-18T22:41:29.305Z,-1.20
2023-01-18T22:43:56.090Z,-1.20
2023-01-18T22:46:23.869Z,-1.20
2023-01-18T22:48:51.261Z,-1.30
2023-01-18T22:51:21.389Z,-1.30
2023-01-18T22:53:49.402Z,-1.30
2023-01-18T22:56:21.542Z,-1.40
2023-01-18T22:58:48.470Z,-1.30
2023-01-18T23:01:18.758Z,-1.40
2023-01-18T23:03:46.061Z,-1.40
2023-01-18T23:06:13.309Z,-1.50
2023-01-18T23:08:43.660Z,-1.60
2023-01-18T23:11:12.381Z,-1.60
2023-01-18T23:13:42.029Z,-1.60
2023-01-18T23:16:31.235Z,-1.60
2023-01-18T23:18:58.365Z,-1.60
2023-01-18T23:21:25.127Z,-1.60
2023-01-18T23:23:51.963Z,-1.60
2023-01-18T23:26:18.745Z,-1.60
2023-01-18T23:28:45.410Z,-1.70
2023-01-18T23:31:14.254Z,-1.70
2023-01-18T23:33:42.409Z,-1.70
2023-01-18T23:36:10.845Z,-1.80
2023-01-18T23:38:56.104Z,-1.80
2023-01-18T23:41:41.652Z,-1.90
2023-01-18T23:44:27.204Z,-1.90
2023-01-18T23:47:12.787Z,-1.90
2023-01-18T23:49:58.322Z,-1.90
2023-01-18T23:52:43.776Z,-2.00
2023-01-18T23:55:10.671Z,-2.00
2023-01-18T23:57:37.361Z,-2.00
